createdAt,value
2023-04-14T00:01:17.530Z,1.75
2023-04-14T00:03:45.109Z,2.00
2023-04-14T00:06:11.929Z,2.53
2023-04-14T00:08:38.544Z,2.38
2023-04-14T00:11:05.290Z,2.08
2023-04-14T00:13:31.900Z,1.95
2023-04-14T00:15:58.538Z,1.77
2023-04-14T00:18:25.700Z,4.30
2023-04-14T00:20:54.115Z,2.97
2023-04-14T00:23:21.104Z,2.60
2023-04-14T00:25:49.752Z,2.38
2023-04-14T00:28:16.364Z,2.10
2023-04-14T00:30:42.993Z,2.33
2023-04-14T00:33:09.838Z,2.85
2023-04-14T00:35:36.541Z,2.80
2023-04-14T00:38:03.153Z,2.70
2023-04-14T00:40:30.339Z,2.20
2023-04-14T00:42:56.994Z,2.85
2023-04-14T00:45:25.268Z,3.22
2023-04-14T00:47:51.965Z,2.63
2023-04-14T00:50:19.638Z,2.30
2023-04-14T00:52:48.941Z,2.13
2023-04-14T00:55:17.965Z,2.17
2023-04-14T00:57:45.803Z,2.42
2023-04-14T01:00:13.985Z,2.25
2023-04-14T01:02:40.821Z,2.13
2023-04-14T01:05:08.032Z,2.38
2023-04-14T01:07:34.976Z,2.13
2023-04-14T01:10:01.900Z,2.30
2023-04-14T01:12:46.760Z,2.63
2023-04-14T01:15:35.459Z,1.88
2023-04-14T01:18:09.687Z,2.00
2023-04-14T01:20:44.424Z,1.70
2023-04-14T01:23:20.487Z,1.58
2023-04-14T01:26:20.643Z,1.85
2023-04-14T01:28:54.972Z,1.83
2023-04-14T01:31:38.969Z,1.55
2023-04-14T01:34:08.551Z,1.80
2023-04-14T01:36:42.205Z,1.90
2023-04-14T01:39:11.446Z,1.63
2023-04-14T01:41:43.626Z,1.90
2023-04-14T01:44:11.045Z,1.40
2023-04-14T01:46:39.502Z,3.00
2023-04-14T01:49:06.804Z,1.58
2023-04-14T01:51:34.608Z,1.88
2023-04-14T01:54:04.017Z,2.00
2023-04-14T01:56:32.397Z,1.98
2023-04-14T01:59:02.039Z,1.95
2023-04-14T02:01:29.939Z,1.48
2023-04-14T02:03:59.752Z,1.65
2023-04-14T02:06:28.218Z,1.83
2023-04-14T02:08:55.713Z,2.05
2023-04-14T02:11:23.626Z,2.20
2023-04-14T02:13:51.370Z,2.08
2023-04-14T02:16:19.096Z,1.85
2023-04-14T02:18:47.390Z,1.98
2023-04-14T02:21:16.282Z,2.20
2023-04-14T02:23:43.196Z,2.28
2023-04-14T02:26:22.391Z,2.40
2023-04-14T02:29:18.160Z,1.60
2023-04-14T02:31:50.324Z,2.28
2023-04-14T02:34:23.733Z,2.40
2023-04-14T02:36:55.274Z,1.98
2023-04-14T02:39:29.468Z,2.03
2023-04-14T02:42:07.990Z,2.00
2023-04-14T02:44:38.757Z,2.08
2023-04-14T02:47:09.016Z,1.90
2023-04-14T02:49:41.471Z,2.00
2023-04-14T02:52:11.877Z,2.83
2023-04-14T02:54:41.505Z,3.20
2023-04-14T02:57:08.913Z,3.60
2023-04-14T02:59:37.631Z,3.20
2023-04-14T03:02:06.143Z,2.70
2023-04-14T03:04:34.945Z,2.40
2023-04-14T03:07:02.870Z,1.92
2023-04-14T03:09:31.885Z,1.10
2023-04-14T03:11:59.209Z,1.50
2023-04-14T03:14:26.516Z,2.10
2023-04-14T03:16:54.635Z,2.17
2023-04-14T03:19:23.079Z,1.95
2023-04-14T03:21:54.634Z,1.98
2023-04-14T03:24:27.537Z,2.13
2023-04-14T03:26:58.756Z,1.70
2023-04-14T03:29:32.833Z,2.15
2023-04-14T03:32:02.433Z,1.85
2023-04-14T03:34:32.094Z,2.13
2023-04-14T03:36:59.559Z,2.00
2023-04-14T03:39:31.640Z,2.40
2023-04-14T03:41:59.051Z,2.50
2023-04-14T03:44:27.385Z,2.03
2023-04-14T03:46:54.592Z,2.10
2023-04-14T03:49:24.046Z,2.25
2023-04-14T03:51:53.325Z,2.40
2023-04-14T03:54:23.723Z,2.25
2023-04-14T03:56:55.949Z,2.30
2023-04-14T03:59:24.732Z,2.15
2023-04-14T04:01:53.190Z,2.15
2023-04-14T04:04:21.252Z,2.50
2023-04-14T04:06:49.988Z,2.47
2023-04-14T04:09:19.536Z,2.33
2023-04-14T04:11:48.974Z,2.50
2023-04-14T04:14:17.600Z,1.92
2023-04-14T04:16:47.253Z,2.47
2023-04-14T04:19:14.471Z,1.83
2023-04-14T04:21:43.261Z,2.22
2023-04-14T04:24:12.137Z,2.30
2023-04-14T04:26:38.943Z,2.45
2023-04-14T04:29:06.366Z,2.53
2023-04-14T04:31:33.841Z,2.78
2023-04-14T04:34:02.967Z,2.80
2023-04-14T04:36:31.961Z,2.25
2023-04-14T04:38:58.701Z,1.95
2023-04-14T04:41:29.768Z,2.78
2023-04-14T04:43:57.079Z,2.55
2023-04-14T04:46:51.938Z,2.20
2023-04-14T04:49:18.756Z,2.15
2023-04-14T04:51:45.411Z,1.33
2023-04-14T04:54:12.066Z,2.15
2023-04-14T04:56:38.679Z,2.60
2023-04-14T04:59:05.760Z,2.40
2023-04-14T05:01:32.677Z,2.33
2023-04-14T05:03:59.435Z,2.50
2023-04-14T05:06:26.537Z,1.52
2023-04-14T05:08:53.793Z,2.55
2023-04-14T05:11:20.672Z,2.20
2023-04-14T05:13:47.562Z,2.42
2023-04-14T05:16:14.694Z,1.98
2023-04-14T05:18:42.502Z,2.47
2023-04-14T05:21:12.608Z,2.55
2023-04-14T05:23:41.993Z,2.65
2023-04-14T05:26:31.262Z,4.03
2023-04-14T05:28:56.037Z,2.70
2023-04-14T05:31:23.024Z,2.85
2023-04-14T05:33:49.651Z,2.58
2023-04-14T05:36:16.323Z,2.35
2023-04-14T05:38:43.098Z,3.03
2023-04-14T05:41:09.848Z,3.00
2023-04-14T05:43:37.033Z,3.40
2023-04-14T05:46:03.945Z,2.97
2023-04-14T05:48:33.010Z,2.90
2023-04-14T05:50:59.598Z,2.78
2023-04-14T05:53:27.345Z,2.80
2023-04-14T05:55:53.994Z,2.45
2023-04-14T05:58:20.655Z,2.65
2023-04-14T06:00:47.387Z,2.10
2023-04-14T06:03:16.219Z,1.80
2023-04-14T06:05:43.280Z,2.65
2023-04-14T06:08:09.966Z,3.00
2023-04-14T06:10:36.641Z,2.90
2023-04-14T06:13:03.280Z,2.22
2023-04-14T06:15:30.934Z,2.55
2023-04-14T06:17:57.550Z,2.78
2023-04-14T06:20:24.236Z,2.00
2023-04-14T06:22:51.284Z,2.50
2023-04-14T06:25:17.875Z,2.80
2023-04-14T06:27:44.647Z,2.45
2023-04-14T06:30:11.735Z,2.75
2023-04-14T06:32:38.388Z,3.00
2023-04-14T06:35:05.506Z,2.90
2023-04-14T06:37:32.398Z,1.70
2023-04-14T06:39:59.100Z,2.88
2023-04-14T06:42:25.865Z,2.97
2023-04-14T06:44:52.522Z,2.85
2023-04-14T06:47:20.814Z,2.10
2023-04-14T06:49:47.699Z,2.70
2023-04-14T06:52:14.301Z,2.28
2023-04-14T06:54:42.248Z,2.50
2023-04-14T06:57:09.209Z,2.72
2023-04-14T06:59:36.590Z,3.10
2023-04-14T07:02:03.387Z,1.88
2023-04-14T07:04:30.148Z,2.00
2023-04-14T07:07:01.195Z,2.53
2023-04-14T07:09:28.702Z,2.30
2023-04-14T07:11:57.061Z,2.38
2023-04-14T07:14:24.246Z,2.10
2023-04-14T07:16:52.141Z,2.17
2023-04-14T07:19:19.249Z,2.45
2023-04-14T07:21:46.503Z,2.03
2023-04-14T07:24:15.411Z,2.50
2023-04-14T07:26:44.045Z,2.72
2023-04-14T07:29:10.848Z,2.13
2023-04-14T07:31:38.819Z,2.15
2023-04-14T07:34:06.209Z,1.40
2023-04-14T07:36:33.177Z,2.40
2023-04-14T07:38:59.884Z,1.52
2023-04-14T07:41:27.894Z,2.40
2023-04-14T07:43:55.638Z,2.83
2023-04-14T07:46:22.413Z,2.15
2023-04-14T07:48:49.156Z,2.63
2023-04-14T07:51:16.071Z,2.92
2023-04-14T07:53:44.794Z,2.75
2023-04-14T07:56:12.346Z,1.35
2023-04-14T07:58:38.969Z,2.35
2023-04-14T08:01:06.299Z,1.55
2023-04-14T08:03:33.368Z,2.28
2023-04-14T08:06:00.304Z,2.05
2023-04-14T08:08:28.139Z,1.83
2023-04-14T08:10:54.721Z,1.63
2023-04-14T08:13:21.337Z,2.20
2023-04-14T08:15:48.015Z,1.60
2023-04-14T08:18:14.626Z,1.80
2023-04-14T08:20:41.455Z,1.52
2023-04-14T08:23:08.097Z,1.60
2023-04-14T08:25:34.695Z,2.15
2023-04-14T08:28:01.400Z,1.80
2023-04-14T08:30:28.013Z,1.50
2023-04-14T08:32:56.986Z,1.63
2023-04-14T08:35:39.286Z,1.60
2023-04-14T08:38:08.599Z,2.03
2023-04-14T08:40:40.149Z,1.38
2023-04-14T08:43:07.119Z,1.67
2023-04-14T08:45:34.414Z,1.70
2023-04-14T08:48:03.390Z,1.20
2023-04-14T08:50:38.282Z,1.98
2023-04-14T08:53:09.150Z,1.30
2023-04-14T08:55:42.439Z,1.50
2023-04-14T08:58:12.302Z,1.80
2023-04-14T09:00:40.013Z,1.30
2023-04-14T09:03:08.886Z,1.73
2023-04-14T09:05:36.266Z,1.52
2023-04-14T09:08:03.895Z,1.50
2023-04-14T09:10:31.196Z,1.95
2023-04-14T09:12:57.889Z,1.30
2023-04-14T09:15:28.498Z,1.30
2023-04-14T09:17:55.537Z,1.55
2023-04-14T09:20:35.684Z,1.65
2023-04-14T09:23:07.799Z,1.40
2023-04-14T09:25:34.461Z,1.83
2023-04-14T09:28:01.170Z,1.23
2023-04-14T09:30:28.628Z,1.40
2023-04-14T09:32:56.398Z,1.80
2023-04-14T09:35:24.054Z,1.30
2023-04-14T09:37:50.897Z,1.50
2023-04-14T09:40:30.484Z,2.00
2023-04-14T09:42:57.733Z,1.20
2023-04-14T09:45:44.630Z,1.38
2023-04-14T09:48:14.919Z,1.55
2023-04-14T09:51:01.904Z,1.77
2023-04-14T09:53:33.464Z,1.40
2023-04-14T09:56:03.071Z,1.70
2023-04-14T09:58:40.946Z,1.42
2023-04-14T10:01:13.678Z,1.52
2023-04-14T10:03:50.097Z,2.20
2023-04-14T10:06:19.682Z,1.70
2023-04-14T10:08:49.036Z,1.20
2023-04-14T10:11:16.440Z,1.83
2023-04-14T10:13:44.200Z,1.58
2023-04-14T10:16:11.141Z,1.67
2023-04-14T10:18:37.907Z,1.85
2023-04-14T10:21:05.696Z,1.65
2023-04-14T10:23:33.259Z,1.45
2023-04-14T10:26:01.054Z,1.70
2023-04-14T10:28:28.950Z,1.50
2023-04-14T10:30:57.460Z,1.23
2023-04-14T10:33:24.838Z,1.33
2023-04-14T10:35:58.334Z,2.17
2023-04-14T10:38:42.277Z,1.90
2023-04-14T10:41:09.407Z,2.10
2023-04-14T10:43:37.712Z,2.22
2023-04-14T10:46:08.326Z,1.30
2023-04-14T10:48:39.386Z,1.60
2023-04-14T10:51:09.479Z,2.20
2023-04-14T10:53:55.292Z,1.50
2023-04-14T10:56:23.846Z,2.10
2023-04-14T10:58:58.455Z,2.00
2023-04-14T11:01:31.285Z,2.08
2023-04-14T11:04:17.898Z,2.63
2023-04-14T11:06:47.579Z,1.40
2023-04-14T11:09:36.960Z,1.30
2023-04-14T11:12:27.673Z,1.33
2023-04-14T11:15:02.725Z,1.88
2023-04-14T11:17:30.586Z,1.35
2023-04-14T11:19:57.910Z,2.10
2023-04-14T11:22:45.811Z,1.52
2023-04-14T11:25:15.598Z,1.90
2023-04-14T11:27:43.074Z,1.15
2023-04-14T11:30:18.247Z,1.98
2023-04-14T11:32:46.575Z,1.83
2023-04-14T11:35:14.007Z,1.98
2023-04-14T11:37:40.813Z,1.70
2023-04-14T11:40:10.009Z,2.20
2023-04-14T11:42:37.282Z,1.40
2023-04-14T11:45:05.872Z,1.60
2023-04-14T11:47:32.576Z,1.30
2023-04-14T11:50:04.842Z,1.40
2023-04-14T11:52:34.545Z,1.00
2023-04-14T11:55:01.904Z,1.27
2023-04-14T11:57:28.588Z,1.80
2023-04-14T11:59:56.510Z,1.30
2023-04-14T12:02:23.348Z,1.60
2023-04-14T12:04:52.511Z,1.50
2023-04-14T12:07:20.678Z,2.15
2023-04-14T12:09:49.296Z,2.00
2023-04-14T12:12:20.368Z,1.10
2023-04-14T12:14:49.134Z,1.10
2023-04-14T12:17:17.056Z,2.05
2023-04-14T12:19:44.733Z,1.20
2023-04-14T12:22:11.710Z,1.60
2023-04-14T12:24:40.798Z,1.67
2023-04-14T12:27:09.419Z,1.10
2023-04-14T12:29:39.906Z,1.20
2023-04-14T12:32:13.209Z,1.55
2023-04-14T12:34:40.536Z,1.63
2023-04-14T12:37:12.351Z,1.73
2023-04-14T12:39:59.798Z,1.60
2023-04-14T12:42:27.950Z,1.65
2023-04-14T12:45:02.408Z,1.63
2023-04-14T12:47:30.947Z,0.75
2023-04-14T12:49:58.727Z,0.90
2023-04-14T12:52:40.963Z,1.17
2023-04-14T12:55:18.918Z,1.10
2023-04-14T12:57:45.520Z,1.20
2023-04-14T13:00:13.643Z,1.80
2023-04-14T13:02:40.975Z,0.80
2023-04-14T13:05:08.402Z,1.25
2023-04-14T13:07:35.084Z,1.00
2023-04-14T13:10:02.640Z,1.55
2023-04-14T13:12:29.296Z,1.35
2023-04-14T13:14:56.161Z,0.82
2023-04-14T13:17:24.042Z,1.00
2023-04-14T13:19:51.552Z,1.33
2023-04-14T13:22:18.257Z,1.10
2023-04-14T13:24:44.874Z,1.63
2023-04-14T13:27:11.802Z,1.00
2023-04-14T13:29:40.120Z,1.50
2023-04-14T13:32:10.324Z,1.20
2023-04-14T13:34:37.722Z,1.40
2023-04-14T13:37:05.162Z,1.45
2023-04-14T13:39:32.025Z,1.40
2023-04-14T13:41:59.387Z,1.30
2023-04-14T13:44:26.066Z,1.30
2023-04-14T13:46:53.068Z,1.20
2023-04-14T13:49:19.689Z,0.90
2023-04-14T13:51:46.391Z,2.10
2023-04-14T13:54:12.959Z,1.30
2023-04-14T13:56:39.537Z,1.17
2023-04-14T13:59:06.124Z,1.60
2023-04-14T14:01:32.715Z,0.88
2023-04-14T14:03:59.420Z,1.45
2023-04-14T14:06:26.367Z,1.40
2023-04-14T14:09:06.145Z,1.40
2023-04-14T14:11:33.438Z,1.05
2023-04-14T14:14:00.400Z,1.30
2023-04-14T14:18:57.203Z,1.30
2023-04-14T14:21:23.789Z,1.23
2023-04-14T14:23:50.335Z,0.93
2023-04-14T14:26:16.975Z,1.20
2023-04-14T14:28:45.049Z,1.20
2023-04-14T14:31:11.768Z,1.35
2023-04-14T14:33:38.599Z,1.02
2023-04-14T14:36:05.788Z,1.02
2023-04-14T14:38:32.567Z,1.10
2023-04-14T14:40:59.382Z,1.00
2023-04-14T14:43:26.118Z,1.48
2023-04-14T14:45:52.705Z,0.90
2023-04-14T14:48:20.880Z,1.25
2023-04-14T14:50:47.495Z,1.38
2023-04-14T14:53:14.029Z,1.00
2023-04-14T14:55:40.701Z,0.93
2023-04-14T14:58:08.331Z,1.08
2023-04-14T15:00:35.621Z,1.00
2023-04-14T15:03:02.352Z,0.98
2023-04-14T15:05:29.081Z,1.00
2023-04-14T15:07:55.900Z,1.10
2023-04-14T15:10:22.455Z,1.13
2023-04-14T15:12:49.082Z,1.20
2023-04-14T15:15:18.919Z,1.00
2023-04-14T15:17:46.166Z,1.10
2023-04-14T15:20:13.133Z,0.90
2023-04-14T15:22:39.883Z,0.80
2023-04-14T15:25:08.888Z,1.00
2023-04-14T15:27:35.802Z,1.10
2023-04-14T15:30:03.300Z,0.82
2023-04-14T15:32:29.968Z,1.00
2023-04-14T15:34:56.698Z,1.05
2023-04-14T15:37:23.256Z,1.00
2023-04-14T15:39:50.642Z,1.08
2023-04-14T15:42:17.314Z,1.10
2023-04-14T15:44:43.946Z,0.80
2023-04-14T15:47:11.104Z,0.93
2023-04-14T15:49:37.652Z,1.15
2023-04-14T15:52:05.780Z,1.10
2023-04-14T15:54:33.554Z,0.90
2023-04-14T15:57:00.149Z,1.10
2023-04-14T15:59:28.660Z,0.90
2023-04-14T16:01:56.008Z,1.10
2023-04-14T16:04:23.259Z,1.02
2023-04-14T16:06:50.012Z,0.82
2023-04-14T16:09:16.721Z,1.02
2023-04-14T16:11:43.380Z,1.00
2023-04-14T16:14:09.980Z,1.00
2023-04-14T16:16:36.718Z,1.10
2023-04-14T16:19:03.543Z,1.00
2023-04-14T16:21:30.458Z,1.05
2023-04-14T16:23:57.060Z,1.13
2023-04-14T16:26:25.150Z,1.20
2023-04-14T16:28:52.480Z,1.25
2023-04-14T16:31:19.101Z,0.90
2023-04-14T16:33:45.940Z,0.80
2023-04-14T16:36:12.768Z,0.90
2023-04-14T16:38:39.378Z,1.45
2023-04-14T16:41:06.052Z,1.35
2023-04-14T16:43:32.713Z,2.17
2023-04-14T16:46:03.615Z,1.00
2023-04-14T16:48:30.781Z,1.00
2023-04-14T16:50:57.489Z,1.10
2023-04-14T16:53:24.158Z,0.85
2023-04-14T16:55:50.765Z,1.23
2023-04-14T16:58:17.553Z,0.93
2023-04-14T17:00:44.112Z,1.00
2023-04-14T17:03:10.992Z,1.05
2023-04-14T17:05:37.824Z,0.90
2023-04-14T17:08:04.795Z,1.48
2023-04-14T17:10:31.679Z,1.02
2023-04-14T17:12:58.297Z,1.02
2023-04-14T17:15:24.893Z,1.10
2023-04-14T17:17:51.504Z,1.17
2023-04-14T17:20:18.206Z,1.20
2023-04-14T17:22:44.869Z,0.93
2023-04-14T17:25:14.730Z,0.93
2023-04-14T17:27:41.293Z,1.02
2023-04-14T17:30:10.137Z,1.00
2023-04-14T17:32:37.920Z,1.20
2023-04-14T17:35:05.010Z,1.38
2023-04-14T17:37:32.010Z,1.13
2023-04-14T17:39:59.286Z,1.02
2023-04-14T17:42:26.376Z,1.13
2023-04-14T17:44:53.052Z,1.00
2023-04-14T17:47:21.745Z,1.20
2023-04-14T17:49:49.752Z,1.30
2023-04-14T17:52:17.649Z,1.17
2023-04-14T17:54:45.852Z,1.20
2023-04-14T17:57:13.365Z,1.15
2023-04-14T17:59:41.485Z,0.93
2023-04-14T18:02:14.131Z,1.52
2023-04-14T18:04:40.903Z,1.20
2023-04-14T18:07:07.572Z,1.27
2023-04-14T18:09:34.761Z,1.92
2023-04-14T18:12:02.106Z,2.60
2023-04-14T18:14:29.958Z,4.63
2023-04-14T18:16:57.167Z,2.88
2023-04-14T18:19:24.304Z,1.65
2023-04-14T18:21:51.267Z,1.50
2023-04-14T18:26:47.585Z,1.70
2023-04-14T18:29:14.203Z,1.70
2023-04-14T18:31:40.785Z,1.77
2023-04-14T18:34:09.302Z,1.80
2023-04-14T18:36:36.364Z,1.77
2023-04-14T18:39:03.221Z,2.20
2023-04-14T18:41:29.943Z,2.35
2023-04-14T18:43:56.688Z,4.80
2023-04-14T18:46:23.435Z,2.92
2023-04-14T18:48:50.125Z,1.90
2023-04-14T18:51:16.809Z,2.03
2023-04-14T18:53:45.189Z,1.92
2023-04-14T18:56:12.474Z,1.90
2023-04-14T18:58:39.895Z,1.90
2023-04-14T19:01:07.175Z,1.50
2023-04-14T19:03:33.901Z,1.55
2023-04-14T19:06:01.568Z,1.55
2023-04-14T19:08:28.146Z,1.60
2023-04-14T19:10:54.780Z,2.00
2023-04-14T19:13:22.132Z,3.08
2023-04-14T19:15:49.078Z,2.42
2023-04-14T19:18:17.072Z,2.90
2023-04-14T19:20:45.550Z,3.28
2023-04-14T19:23:12.203Z,3.38
2023-04-14T19:25:39.322Z,4.32
2023-04-14T19:28:06.610Z,4.45
2023-04-14T19:30:33.397Z,3.17
2023-04-14T19:32:59.987Z,5.07
2023-04-14T19:35:27.542Z,3.95
2023-04-14T19:37:56.465Z,3.00
2023-04-14T19:40:23.045Z,2.25
2023-04-14T19:42:49.680Z,2.40
2023-04-14T19:45:16.327Z,2.55
2023-04-14T19:47:43.593Z,2.58
2023-04-14T19:50:10.425Z,1.88
2023-04-14T19:52:37.839Z,1.92
2023-04-14T19:55:05.537Z,1.73
2023-04-14T19:57:32.240Z,2.42
2023-04-14T19:59:59.131Z,2.20
2023-04-14T20:02:30.184Z,1.77
2023-04-14T20:04:57.143Z,1.60
2023-04-14T20:07:23.768Z,1.90
2023-04-14T20:09:50.335Z,1.88
2023-04-14T20:12:17.139Z,2.25
2023-04-14T20:14:44.835Z,1.83
2023-04-14T20:17:12.396Z,1.95
2023-04-14T20:19:39.009Z,1.88
2023-04-14T20:22:05.691Z,2.05
2023-04-14T20:24:32.634Z,2.08
2023-04-14T20:26:59.214Z,2.42
2023-04-14T20:29:25.920Z,2.92
2023-04-14T20:31:53.398Z,3.88
2023-04-14T20:34:19.979Z,3.33
2023-04-14T20:36:47.503Z,3.10
2023-04-14T20:39:14.110Z,3.80
2023-04-14T20:41:41.091Z,2.80
2023-04-14T20:44:07.953Z,2.78
2023-04-14T20:46:34.661Z,3.33
2023-04-14T20:49:02.569Z,3.17
2023-04-14T20:51:29.790Z,3.25
2023-04-14T20:53:56.753Z,3.10
2023-04-14T20:56:27.017Z,3.35
2023-04-14T20:58:53.733Z,4.78
2023-04-14T21:01:20.398Z,4.20
2023-04-14T21:03:47.131Z,4.38
2023-04-14T21:06:13.836Z,4.45
2023-04-14T21:08:40.553Z,4.30
2023-04-14T21:11:16.908Z,3.70
2023-04-14T21:15:38.711Z,3.85
2023-04-14T21:16:32.672Z,4.57
2023-04-14T21:19:01.276Z,4.10
2023-04-14T21:21:28.117Z,4.40
2023-04-14T21:23:54.728Z,5.28
2023-04-14T21:26:21.940Z,3.90
2023-04-14T21:28:48.529Z,3.88
2023-04-14T21:31:15.635Z,3.72
2023-04-14T21:33:42.332Z,3.40
2023-04-14T21:36:11.775Z,3.65
2023-04-14T21:38:39.124Z,3.40
2023-04-14T21:41:06.224Z,3.30
2023-04-14T21:43:32.817Z,3.00
2023-04-14T21:48:26.167Z,2.78
2023-04-14T21:50:52.827Z,3.22
2023-04-14T21:53:20.605Z,3.72
2023-04-14T21:55:47.256Z,3.22
2023-04-14T21:58:30.053Z,3.60
2023-04-14T22:00:56.671Z,3.60
2023-04-14T22:03:23.412Z,3.60
2023-04-14T22:05:53.189Z,3.92
2023-04-14T22:08:19.807Z,3.20
2023-04-14T22:10:47.214Z,3.65
2023-04-14T22:13:14.816Z,3.67
2023-04-14T22:15:43.187Z,4.07
2023-04-14T22:18:10.645Z,4.38
2023-04-14T22:20:37.381Z,4.53
2023-04-14T22:23:04.049Z,4.05
2023-04-14T22:25:30.691Z,3.50
2023-04-14T22:27:57.691Z,3.72
2023-04-14T22:30:24.375Z,3.45
2023-04-14T22:32:51.051Z,3.65
2023-04-14T22:35:17.731Z,3.40
2023-04-14T22:37:44.293Z,3.67
2023-04-14T22:40:11.049Z,3.40
2023-04-14T22:42:37.695Z,2.88
2023-04-14T22:45:05.453Z,3.05
2023-04-14T22:47:32.415Z,2.95
2023-04-14T22:50:00.087Z,3.30
2023-04-14T22:52:27.781Z,3.38
2023-04-14T22:54:54.644Z,3.20
2023-04-14T22:57:21.438Z,4.15
2023-04-14T22:59:48.058Z,3.65
2023-04-14T23:02:14.920Z,3.33
2023-04-14T23:04:42.016Z,3.53
2023-04-14T23:07:08.786Z,3.35
2023-04-14T23:09:35.419Z,3.53
2023-04-14T23:12:02.555Z,3.38
2023-04-14T23:14:29.145Z,3.50
2023-04-14T23:16:56.061Z,3.53
2023-04-14T23:19:22.726Z,3.40
2023-04-14T23:21:50.804Z,3.60
2023-04-14T23:24:17.934Z,4.15
2023-04-14T23:26:44.897Z,3.75
2023-04-14T23:29:11.735Z,4.35
2023-04-14T23:31:38.420Z,4.85
2023-04-14T23:34:05.337Z,5.70
2023-04-14T23:36:31.960Z,4.60
2023-04-14T23:38:58.637Z,4.32
2023-04-14T23:41:25.313Z,4.10
2023-04-14T23:43:52.049Z,4.18
2023-04-14T23:46:18.802Z,4.07
2023-04-14T23:48:46.569Z,4.30
2023-04-14T23:51:13.822Z,4.60
2023-04-14T23:53:46.357Z,4.40
2023-04-14T23:56:13.008Z,3.45
2023-04-14T23:58:39.654Z,3.70
